createdAt,value
2023-03-11T00:00:33.180Z,1.08
2023-03-11T00:03:02.007Z,1.80
2023-03-11T00:05:31.589Z,2.47
2023-03-11T00:07:58.377Z,1.33
2023-03-11T00:10:37.517Z,1.80
2023-03-11T00:13:05.398Z,2.03
2023-03-11T00:15:33.306Z,2.97
2023-03-11T00:18:00.567Z,1.10
2023-03-11T00:20:29.314Z,1.85
2023-03-11T00:22:56.944Z,3.05
2023-03-11T00:25:27.211Z,0.90
2023-03-11T00:27:54.363Z,2.10
2023-03-11T00:30:22.394Z,7.35
2023-03-11T00:32:50.621Z,2.47
2023-03-11T00:35:21.077Z,2.00
2023-03-11T00:37:49.073Z,2.80
2023-03-11T00:40:18.685Z,2.38
2023-03-11T00:42:45.484Z,2.67
2023-03-11T00:45:13.279Z,4.70
2023-03-11T00:47:40.469Z,2.15
2023-03-11T00:50:09.744Z,2.13
2023-03-11T00:52:36.561Z,3.05
2023-03-11T00:55:03.600Z,0.90
2023-03-11T00:57:30.753Z,1.15
2023-03-11T00:59:59.768Z,2.78
2023-03-11T01:02:26.701Z,0.90
2023-03-11T01:04:55.789Z,1.63
2023-03-11T01:07:23.371Z,2.55
2023-03-11T01:09:50.144Z,1.65
2023-03-11T01:12:16.901Z,2.17
2023-03-11T01:14:44.004Z,2.22
2023-03-11T01:17:10.897Z,2.08
2023-03-11T01:19:37.674Z,1.83
2023-03-11T01:22:04.733Z,3.50
2023-03-11T01:24:31.665Z,1.73
2023-03-11T01:26:58.445Z,1.92
2023-03-11T01:29:25.225Z,2.72
2023-03-11T01:31:51.949Z,3.33
2023-03-11T01:34:18.699Z,1.75
2023-03-11T01:36:45.897Z,5.80
2023-03-11T01:39:12.670Z,3.30
2023-03-11T01:41:39.433Z,2.42
2023-03-11T01:44:06.879Z,3.55
2023-03-11T01:47:00.085Z,2.13
2023-03-11T01:49:33.044Z,3.95
2023-03-11T01:52:07.807Z,1.27
2023-03-11T01:54:41.442Z,4.47
2023-03-11T01:57:12.827Z,5.32
2023-03-11T01:59:44.821Z,4.63
2023-03-11T02:02:29.680Z,2.15
2023-03-11T02:04:59.252Z,3.95
2023-03-11T02:07:26.060Z,2.28
2023-03-11T02:09:52.970Z,4.90
2023-03-11T02:12:20.154Z,3.20
2023-03-11T02:14:50.616Z,3.25
2023-03-11T02:17:18.090Z,1.73
2023-03-11T02:20:06.188Z,2.97
2023-03-11T02:22:33.601Z,5.82
2023-03-11T02:25:18.137Z,2.95
2023-03-11T02:27:48.724Z,1.35
2023-03-11T02:30:17.149Z,1.75
2023-03-11T02:32:48.502Z,3.13
2023-03-11T02:35:17.352Z,1.63
2023-03-11T02:37:49.735Z,1.95
2023-03-11T02:40:22.611Z,1.67
2023-03-11T02:42:55.034Z,1.70
2023-03-11T02:45:25.332Z,2.67
2023-03-11T02:47:56.293Z,3.90
2023-03-11T02:50:25.344Z,2.17
2023-03-11T02:52:52.547Z,1.92
2023-03-11T02:55:20.865Z,2.75
2023-03-11T02:57:48.401Z,3.55
2023-03-11T03:00:16.760Z,3.58
2023-03-11T03:02:51.733Z,4.38
2023-03-11T03:05:22.917Z,4.60
2023-03-11T03:07:51.525Z,2.00
2023-03-11T03:10:20.423Z,2.85
2023-03-11T03:12:47.695Z,1.92
2023-03-11T03:15:16.036Z,4.32
2023-03-11T03:17:44.213Z,1.92
2023-03-11T03:20:12.602Z,4.75
2023-03-11T03:22:43.296Z,8.48
2023-03-11T03:25:12.566Z,1.65
2023-03-11T03:27:39.656Z,3.92
2023-03-11T03:30:09.251Z,3.50
2023-03-11T03:32:37.197Z,3.50
2023-03-11T03:35:06.186Z,4.93
2023-03-11T03:38:01.299Z,4.15
2023-03-11T03:40:28.276Z,1.73
2023-03-11T03:42:57.254Z,2.88
2023-03-11T03:45:24.714Z,2.40
2023-03-11T03:47:53.104Z,3.40
2023-03-11T03:50:22.137Z,2.28
2023-03-11T03:52:50.735Z,1.73
2023-03-11T03:55:18.384Z,2.55
2023-03-11T03:57:45.238Z,1.90
2023-03-11T04:00:14.312Z,2.78
2023-03-11T04:02:41.277Z,4.00
2023-03-11T04:05:16.366Z,2.03
2023-03-11T04:07:43.241Z,3.58
2023-03-11T04:10:10.848Z,2.55
2023-03-11T04:12:38.178Z,1.98
2023-03-11T04:15:07.709Z,3.97
2023-03-11T04:17:35.120Z,3.63
2023-03-11T04:20:02.523Z,2.92
2023-03-11T04:22:30.448Z,3.08
2023-03-11T04:24:58.789Z,6.93
2023-03-11T04:27:25.803Z,4.05
2023-03-11T04:29:53.063Z,2.30
2023-03-11T04:32:20.017Z,3.60
2023-03-11T04:34:46.896Z,7.18
2023-03-11T04:37:15.338Z,6.20
2023-03-11T04:39:42.161Z,4.30
2023-03-11T04:42:09.212Z,1.25
2023-03-11T04:44:36.889Z,1.98
2023-03-11T04:47:05.233Z,2.80
2023-03-11T04:49:32.033Z,2.75
2023-03-11T04:51:58.806Z,3.10
2023-03-11T04:54:26.653Z,5.18
2023-03-11T04:56:53.485Z,5.00
2023-03-11T04:59:20.674Z,4.03
2023-03-11T05:01:48.754Z,4.50
2023-03-11T05:04:16.832Z,2.50
2023-03-11T05:06:43.631Z,4.93
2023-03-11T05:09:11.802Z,4.97
2023-03-11T05:11:40.256Z,3.50
2023-03-11T05:14:07.258Z,3.88
2023-03-11T05:16:34.100Z,3.33
2023-03-11T05:19:00.983Z,3.28
2023-03-11T05:21:28.766Z,2.80
2023-03-11T05:23:55.776Z,2.22
2023-03-11T05:26:22.578Z,2.50
2023-03-11T05:28:49.331Z,5.43
2023-03-11T05:31:16.147Z,5.05
2023-03-11T05:33:42.968Z,5.55
2023-03-11T05:36:12.664Z,4.45
2023-03-11T05:38:42.492Z,4.80
2023-03-11T05:41:09.677Z,7.78
2023-03-11T05:43:36.889Z,4.43
2023-03-11T05:46:03.950Z,6.55
2023-03-11T05:48:31.482Z,4.63
2023-03-11T05:50:59.350Z,2.90
2023-03-11T05:53:26.810Z,7.82
2023-03-11T05:55:58.295Z,5.22
2023-03-11T05:58:27.656Z,6.22
2023-03-11T06:00:54.752Z,2.10
2023-03-11T06:03:21.718Z,4.28
2023-03-11T06:05:49.993Z,5.45
2023-03-11T06:08:18.126Z,3.03
2023-03-11T06:10:46.832Z,6.03
2023-03-11T06:13:15.584Z,3.10
2023-03-11T06:15:51.438Z,7.93
2023-03-11T06:18:19.722Z,3.40
2023-03-11T06:20:46.742Z,6.28
2023-03-11T06:23:13.522Z,6.00
2023-03-11T06:25:40.853Z,3.15
2023-03-11T06:28:07.880Z,6.07
2023-03-11T06:30:35.267Z,4.88
2023-03-11T06:33:09.472Z,2.92
2023-03-11T06:35:36.620Z,4.80
2023-03-11T06:38:03.590Z,4.70
2023-03-11T06:40:30.463Z,4.90
2023-03-11T06:42:57.264Z,4.25
2023-03-11T06:45:26.426Z,3.58
2023-03-11T06:47:53.405Z,4.50
2023-03-11T06:50:23.615Z,4.03
2023-03-11T06:52:50.736Z,6.72
2023-03-11T06:55:17.588Z,6.80
2023-03-11T06:57:45.734Z,7.03
2023-03-11T07:00:13.997Z,4.75
2023-03-11T07:02:45.945Z,3.75
2023-03-11T07:05:15.074Z,4.20
2023-03-11T07:07:42.368Z,4.35
2023-03-11T07:10:10.275Z,4.05
2023-03-11T07:12:37.071Z,5.45
2023-03-11T07:15:04.387Z,4.90
2023-03-11T07:17:33.452Z,5.88
2023-03-11T07:20:00.375Z,5.18
2023-03-11T07:22:27.153Z,5.72
2023-03-11T07:24:53.902Z,10.10
2023-03-11T07:27:21.100Z,5.25
2023-03-11T07:29:47.969Z,6.28
2023-03-11T07:32:15.277Z,3.80
2023-03-11T07:34:42.156Z,6.95
2023-03-11T07:37:09.140Z,3.47
2023-03-11T07:39:35.892Z,6.38
2023-03-11T07:42:04.558Z,8.38
2023-03-11T07:44:35.667Z,6.57
2023-03-11T07:47:06.478Z,6.50
2023-03-11T07:49:34.589Z,5.82
2023-03-11T07:52:01.334Z,8.50
2023-03-11T07:54:28.087Z,7.68
2023-03-11T07:56:54.837Z,6.07
2023-03-11T07:59:21.645Z,7.03
2023-03-11T08:01:48.386Z,4.07
2023-03-11T08:04:16.858Z,4.38
2023-03-11T08:06:46.323Z,6.10
2023-03-11T08:09:13.544Z,5.85
2023-03-11T08:11:40.590Z,5.30
2023-03-11T08:14:07.479Z,3.63
2023-03-11T08:16:34.652Z,3.08
2023-03-11T08:19:01.708Z,5.13
2023-03-11T08:21:32.329Z,3.83
2023-03-11T08:24:01.494Z,2.10
2023-03-11T08:26:28.830Z,4.68
2023-03-11T08:28:56.960Z,8.75
2023-03-11T08:31:27.478Z,6.15
2023-03-11T08:33:58.691Z,3.45
2023-03-11T08:36:25.625Z,8.82
2023-03-11T08:38:52.485Z,7.22
2023-03-11T08:41:19.785Z,3.35
2023-03-11T08:43:47.074Z,2.50
2023-03-11T08:46:26.491Z,4.93
2023-03-11T08:48:54.237Z,5.00
2023-03-11T08:51:21.412Z,3.42
2023-03-11T08:53:48.658Z,4.18
2023-03-11T08:56:15.458Z,4.47
2023-03-11T08:58:42.319Z,3.88
2023-03-11T09:01:09.344Z,4.78
2023-03-11T09:03:36.394Z,6.47
2023-03-11T09:06:06.589Z,6.68
2023-03-11T09:08:33.921Z,1.95
2023-03-11T09:11:01.010Z,5.20
2023-03-11T09:13:28.633Z,4.90
2023-03-11T09:15:55.642Z,3.63
2023-03-11T09:18:22.453Z,3.85
2023-03-11T09:20:49.305Z,5.50
2023-03-11T09:23:17.410Z,3.88
2023-03-11T09:25:44.421Z,2.25
2023-03-11T09:28:11.192Z,3.45
2023-03-11T09:30:37.946Z,1.90
2023-03-11T09:33:04.784Z,4.07
2023-03-11T09:35:31.660Z,7.22
2023-03-11T09:37:58.423Z,2.38
2023-03-11T09:40:28.341Z,2.45
2023-03-11T09:43:16.525Z,4.90
2023-03-11T09:45:53.574Z,2.70
2023-03-11T09:48:30.881Z,1.92
2023-03-11T09:51:09.182Z,6.72
2023-03-11T09:53:42.728Z,3.78
2023-03-11T09:56:13.438Z,2.10
2023-03-11T09:59:15.278Z,7.40
2023-03-11T10:01:45.519Z,3.13
2023-03-11T10:04:29.597Z,2.53
2023-03-11T10:06:57.395Z,1.33
2023-03-11T10:09:32.872Z,2.78
2023-03-11T10:12:22.057Z,1.20
2023-03-11T10:15:11.938Z,2.55
2023-03-11T10:17:53.712Z,2.38
2023-03-11T10:20:57.742Z,2.03
2023-03-11T10:24:09.250Z,3.03
2023-03-11T10:26:43.459Z,2.42
2023-03-11T10:29:24.631Z,3.95
2023-03-11T10:31:57.481Z,5.53
2023-03-11T10:37:11.744Z,3.50
2023-03-11T10:39:40.873Z,2.03
2023-03-11T10:42:15.197Z,2.30
2023-03-11T10:44:43.179Z,3.53
2023-03-11T10:47:18.277Z,3.55
2023-03-11T10:49:45.483Z,2.42
2023-03-11T10:52:13.073Z,3.10
2023-03-11T10:54:48.859Z,3.58
2023-03-11T10:57:27.637Z,3.58
2023-03-11T10:59:56.653Z,6.25
2023-03-11T11:02:31.677Z,2.80
2023-03-11T11:05:27.206Z,4.70
2023-03-11T11:08:07.006Z,4.55
2023-03-11T11:10:37.793Z,1.50
2023-03-11T11:13:13.565Z,3.42
2023-03-11T11:15:51.967Z,2.58
2023-03-11T11:18:23.165Z,2.17
2023-03-11T11:21:14.695Z,3.78
2023-03-11T11:23:49.779Z,3.90
2023-03-11T11:26:25.245Z,2.08
2023-03-11T11:29:18.384Z,8.57
2023-03-11T11:31:46.516Z,5.03
2023-03-11T11:34:29.050Z,3.80
2023-03-11T11:36:59.117Z,6.82
2023-03-11T11:39:29.079Z,4.38
2023-03-11T11:41:56.818Z,1.75
2023-03-11T11:44:32.165Z,2.60
2023-03-11T11:47:11.034Z,3.75
2023-03-11T11:49:44.077Z,2.55
2023-03-11T11:54:49.761Z,4.07
2023-03-11T11:57:20.253Z,2.05
2023-03-11T11:59:48.026Z,3.95
2023-03-11T12:02:26.953Z,2.58
2023-03-11T12:05:01.241Z,2.88
2023-03-11T12:07:46.540Z,1.48
2023-03-11T12:10:24.247Z,5.25
2023-03-11T12:12:53.856Z,4.28
2023-03-11T12:15:39.087Z,3.88
2023-03-11T12:18:13.705Z,4.60
2023-03-11T12:20:53.574Z,2.72
2023-03-11T12:23:25.078Z,3.97
2023-03-11T12:26:21.757Z,2.50
2023-03-11T12:29:04.770Z,3.70
2023-03-11T12:31:39.010Z,4.03
2023-03-11T12:34:11.257Z,1.30
2023-03-11T12:36:44.556Z,3.60
2023-03-11T12:39:29.004Z,2.40
2023-03-11T12:42:11.136Z,2.20
2023-03-11T12:44:41.419Z,4.00
2023-03-11T12:47:08.107Z,1.77
2023-03-11T12:49:37.872Z,2.35
2023-03-11T12:52:17.349Z,2.35
2023-03-11T12:54:51.105Z,4.25
2023-03-11T12:57:18.016Z,4.05
2023-03-11T13:00:18.029Z,3.90
2023-03-11T13:03:21.681Z,4.32
2023-03-11T13:06:05.603Z,2.83
2023-03-11T13:08:44.014Z,2.58
2023-03-11T13:11:31.358Z,3.17
2023-03-11T13:14:33.542Z,4.22
2023-03-11T13:17:31.199Z,3.45
2023-03-11T13:19:59.049Z,3.15
2023-03-11T13:22:43.778Z,5.78
2023-03-11T13:25:29.342Z,2.50
2023-03-11T13:28:20.181Z,4.07
2023-03-11T13:30:56.710Z,3.63
2023-03-11T13:33:50.401Z,3.50
2023-03-11T13:36:54.581Z,4.90
2023-03-11T13:39:57.523Z,3.92
2023-03-11T13:42:33.280Z,1.98
2023-03-11T13:45:00.411Z,1.33
2023-03-11T13:47:28.889Z,2.05
2023-03-11T13:50:09.687Z,3.20
2023-03-11T13:52:46.671Z,2.97
2023-03-11T13:55:23.163Z,2.03
2023-03-11T13:57:55.706Z,2.08
2023-03-11T14:00:28.600Z,1.10
2023-03-11T14:03:02.504Z,6.35
2023-03-11T14:05:34.866Z,2.25
2023-03-11T14:08:28.126Z,1.80
2023-03-11T14:11:00.706Z,3.28
2023-03-11T14:13:32.671Z,6.10
2023-03-11T14:16:09.415Z,3.72
2023-03-11T14:18:42.394Z,4.30
2023-03-11T14:23:46.868Z,5.13
2023-03-11T14:26:20.866Z,1.48
2023-03-11T14:28:51.877Z,2.67
2023-03-11T14:31:39.586Z,3.92
2023-03-11T14:34:31.600Z,3.13
2023-03-11T14:37:00.311Z,5.55
2023-03-11T14:39:35.547Z,1.80
2023-03-11T14:42:26.595Z,2.33
2023-03-11T14:45:07.827Z,6.57
2023-03-11T14:47:49.431Z,5.38
2023-03-11T14:50:22.508Z,3.38
2023-03-11T14:55:23.348Z,1.92
2023-03-11T14:57:59.821Z,3.38
2023-03-11T15:00:30.587Z,3.85
2023-03-11T15:03:12.855Z,2.75
2023-03-11T15:05:48.676Z,3.67
2023-03-11T15:08:19.690Z,2.22
2023-03-11T15:11:05.658Z,1.75
2023-03-11T15:13:32.858Z,2.92
2023-03-11T15:16:02.223Z,4.25
2023-03-11T15:18:37.245Z,4.40
2023-03-11T15:21:16.302Z,3.65
2023-03-11T15:23:50.421Z,2.70
2023-03-11T15:26:29.980Z,3.67
2023-03-11T15:29:11.764Z,3.20
2023-03-11T15:31:40.565Z,2.97
2023-03-11T15:34:16.058Z,5.90
2023-03-11T15:36:48.870Z,5.15
2023-03-11T15:39:20.432Z,3.78
2023-03-11T15:41:57.755Z,2.83
2023-03-11T15:44:28.032Z,7.82
2023-03-11T15:46:54.904Z,6.40
2023-03-11T15:49:22.146Z,5.55
2023-03-11T15:51:49.111Z,3.58
2023-03-11T15:54:16.029Z,5.65
2023-03-11T15:56:43.736Z,4.18
2023-03-11T15:59:17.504Z,3.05
2023-03-11T16:01:46.277Z,3.72
2023-03-11T16:04:18.473Z,4.57
2023-03-11T16:06:49.570Z,4.60
2023-03-11T16:09:21.085Z,5.72
2023-03-11T16:11:47.898Z,3.17
2023-03-11T16:14:20.191Z,3.08
2023-03-11T16:16:47.518Z,4.35
2023-03-11T16:19:14.278Z,7.20
2023-03-11T16:21:45.973Z,5.35
2023-03-11T16:24:18.889Z,3.63
2023-03-11T16:26:45.733Z,4.65
2023-03-11T16:29:18.978Z,8.48
2023-03-11T16:31:46.658Z,5.30
2023-03-11T16:34:13.431Z,5.38
2023-03-11T16:36:40.401Z,6.85
2023-03-11T16:39:07.253Z,4.07
2023-03-11T16:41:42.252Z,11.48
2023-03-11T16:44:09.832Z,6.47
2023-03-11T16:46:36.990Z,3.78
2023-03-11T16:49:04.011Z,4.18
2023-03-11T16:51:31.388Z,3.78
2023-03-11T16:53:58.201Z,8.70
2023-03-11T16:56:24.981Z,5.70
2023-03-11T16:58:51.789Z,6.28
2023-03-11T17:01:19.173Z,7.63
2023-03-11T17:03:48.658Z,7.50
2023-03-11T17:06:17.033Z,9.40
2023-03-11T17:08:49.058Z,6.28
2023-03-11T17:11:21.821Z,6.10
2023-03-11T17:13:50.088Z,8.80
2023-03-11T17:16:17.003Z,10.70
2023-03-11T17:18:43.832Z,7.85
2023-03-11T17:21:12.917Z,9.25
2023-03-11T17:23:40.129Z,10.32
2023-03-11T17:26:15.329Z,8.50
2023-03-11T17:28:43.286Z,11.38
2023-03-11T17:31:15.911Z,7.05
2023-03-11T17:33:42.988Z,10.52
2023-03-11T17:36:13.812Z,9.73
2023-03-11T17:38:40.561Z,8.10
2023-03-11T17:41:12.704Z,4.07
2023-03-11T17:43:40.352Z,8.75
2023-03-11T17:46:16.681Z,6.45
2023-03-11T17:48:45.693Z,7.03
2023-03-11T17:51:18.646Z,6.22
2023-03-11T17:56:15.511Z,8.23
2023-03-11T17:58:42.571Z,9.02
2023-03-11T18:01:23.225Z,10.32
2023-03-11T18:03:50.835Z,9.77
2023-03-11T18:06:18.852Z,9.13
2023-03-11T18:08:45.987Z,7.15
2023-03-11T18:11:18.669Z,5.90
2023-03-11T18:13:45.916Z,5.97
2023-03-11T18:16:15.694Z,6.43
2023-03-11T18:18:43.384Z,8.18
2023-03-11T18:21:16.814Z,9.90
2023-03-11T18:23:44.076Z,12.63
2023-03-11T18:26:12.896Z,9.90
2023-03-11T18:28:39.959Z,7.30
2023-03-11T18:31:09.150Z,6.28
2023-03-11T18:33:37.031Z,5.97
2023-03-11T18:36:22.102Z,10.25
2023-03-11T18:38:49.214Z,7.22
2023-03-11T18:41:16.112Z,6.43
2023-03-11T18:43:43.119Z,6.40
2023-03-11T18:46:13.340Z,5.90
2023-03-11T18:48:40.244Z,9.45
2023-03-11T18:51:08.398Z,7.15
2023-03-11T18:53:36.036Z,9.02
2023-03-11T18:56:05.842Z,7.40
2023-03-11T18:58:33.197Z,7.30
2023-03-11T19:01:13.834Z,12.00
2023-03-11T19:03:41.970Z,6.18
2023-03-11T19:06:12.231Z,3.97
2023-03-11T19:08:40.196Z,6.78
2023-03-11T19:11:10.634Z,7.25
2023-03-11T19:13:46.692Z,7.03
2023-03-11T19:16:16.758Z,8.65
2023-03-11T19:18:43.598Z,9.95
2023-03-11T19:21:12.456Z,14.68
2023-03-11T19:23:39.269Z,21.30
2023-03-11T19:26:06.698Z,25.50
2023-03-11T19:28:34.022Z,24.00
2023-03-11T19:31:01.285Z,20.80
2023-03-11T19:33:28.245Z,13.57
2023-03-11T19:36:00.682Z,9.10
2023-03-11T19:38:28.320Z,9.07
2023-03-11T19:41:11.709Z,10.38
2023-03-11T19:43:38.447Z,12.18
2023-03-11T19:46:06.829Z,5.88
2023-03-11T19:48:34.073Z,8.27
2023-03-11T19:51:02.498Z,8.82
2023-03-11T19:53:29.406Z,7.38
2023-03-11T19:55:57.458Z,7.32
2023-03-11T19:58:28.788Z,9.40
2023-03-11T20:00:56.861Z,8.80
2023-03-11T20:03:23.732Z,7.20
2023-03-11T20:05:52.899Z,9.18
2023-03-11T20:08:21.609Z,9.65
2023-03-11T20:10:51.069Z,5.68
2023-03-11T20:13:22.903Z,7.13
2023-03-11T20:15:50.009Z,9.00
2023-03-11T20:18:17.955Z,7.70
2023-03-11T20:20:45.386Z,8.23
2023-03-11T20:23:12.605Z,6.00
2023-03-11T20:25:40.718Z,8.48
2023-03-11T20:28:07.542Z,9.68
2023-03-11T20:30:34.435Z,18.35
2023-03-11T20:33:01.341Z,45.92
2023-03-11T20:35:28.214Z,57.70
2023-03-11T20:37:55.117Z,45.17
2023-03-11T20:40:22.170Z,43.92
2023-03-11T20:42:48.937Z,28.33
2023-03-11T20:45:21.381Z,19.70
2023-03-11T20:47:49.821Z,15.35
2023-03-11T20:50:17.121Z,7.43
2023-03-11T20:52:44.066Z,7.25
2023-03-11T20:55:11.384Z,6.63
2023-03-11T20:57:39.151Z,19.75
2023-03-11T21:00:11.255Z,19.65
2023-03-11T21:02:39.667Z,18.98
2023-03-11T21:05:08.015Z,15.63
2023-03-11T21:07:35.335Z,17.65
2023-03-11T21:10:04.428Z,17.60
2023-03-11T21:12:31.448Z,18.30
2023-03-11T21:14:58.475Z,19.08
2023-03-11T21:17:25.332Z,13.20
2023-03-11T21:19:52.162Z,15.73
2023-03-11T21:22:19.084Z,12.93
2023-03-11T21:24:45.853Z,11.90
2023-03-11T21:27:12.682Z,10.00
2023-03-11T21:29:39.533Z,11.20
2023-03-11T21:32:06.783Z,7.88
2023-03-11T21:34:33.805Z,7.30
2023-03-11T21:37:00.849Z,12.38
2023-03-11T21:39:27.610Z,9.10
2023-03-11T21:41:56.898Z,10.50
2023-03-11T21:44:23.693Z,9.60
2023-03-11T21:46:50.705Z,7.78
2023-03-11T21:49:17.749Z,8.68
2023-03-11T21:51:44.509Z,10.13
2023-03-11T21:54:12.602Z,11.65
2023-03-11T21:56:39.831Z,17.80
2023-03-11T21:59:06.925Z,15.73
2023-03-11T22:01:34.695Z,15.35
2023-03-11T22:04:02.487Z,12.65
2023-03-11T22:06:31.167Z,11.93
2023-03-11T22:08:58.041Z,11.25
2023-03-11T22:11:25.040Z,8.93
2023-03-11T22:13:54.126Z,11.27
2023-03-11T22:16:22.795Z,11.55
2023-03-11T22:18:50.557Z,10.68
2023-03-11T22:21:20.510Z,11.35
2023-03-11T22:23:47.725Z,15.38
2023-03-11T22:26:15.910Z,13.68
2023-03-11T22:28:43.227Z,10.07
2023-03-11T22:31:12.616Z,11.20
2023-03-11T22:33:39.892Z,9.27
2023-03-11T22:36:07.846Z,10.23
2023-03-11T22:38:36.708Z,11.38
2023-03-11T22:41:07.659Z,10.90
2023-03-11T22:43:35.296Z,10.38
2023-03-11T22:46:04.745Z,12.32
2023-03-11T22:48:32.512Z,8.30
2023-03-11T22:50:59.271Z,7.45
2023-03-11T22:53:26.164Z,12.98
2023-03-11T22:55:53.167Z,7.15
2023-03-11T22:58:20.239Z,7.35
2023-03-11T23:00:47.107Z,8.43
2023-03-11T23:03:14.359Z,9.90
2023-03-11T23:05:45.807Z,8.75
2023-03-11T23:08:15.567Z,10.55
2023-03-11T23:10:45.816Z,9.65
2023-03-11T23:13:13.286Z,8.75
2023-03-11T23:15:41.866Z,10.35
2023-03-11T23:18:09.070Z,10.93
2023-03-11T23:20:37.765Z,8.05
2023-03-11T23:23:05.552Z,9.27
2023-03-11T23:25:32.966Z,10.27
2023-03-11T23:28:02.697Z,7.80
2023-03-11T23:30:29.468Z,11.48
2023-03-11T23:32:57.250Z,8.48
2023-03-11T23:35:24.508Z,13.07
2023-03-11T23:37:51.700Z,8.93
2023-03-11T23:40:18.625Z,9.82
2023-03-11T23:42:45.428Z,9.05
2023-03-11T23:45:12.169Z,10.77
2023-03-11T23:47:38.978Z,9.52
2023-03-11T23:50:06.488Z,13.43
2023-03-11T23:52:33.681Z,10.23
2023-03-11T23:55:00.914Z,10.18
2023-03-11T23:57:27.755Z,10.88
2023-03-11T23:59:54.479Z,10.50
